Jordan, MT

3:12 AM MDT on September 18, 2014 (GMT -0600)
Jordan | Change Station
CLOSE
Current Station
Airport
Location: Jordan,
Elevation: 2661 ft
Nearby Weather Stations

Elev 2661 ft 47.33 °N, 106.95 °W | Updated 24 minutes ago

Clear
Clear
57 °F
Feels Like 57 °F
N
4
Wind Variable Wind from ESE
Gusts 10 mph

Today
High -- | Low -- °F
--% Chance of Precip.
Yesterday
High -- | Low -- °F
Precip. -- in
6:48 AM 7:12 PM
Waning Crescent, 28% visible
Pressure 29.71 in
Visibility -9999.0 miles
Clouds
Dew Point 50 °F
Humidity 77%
Rainfall 0.00 in
Snow Depth Not available.
UV Not available.
Pollen 5.60 out of 12
Air Quality Not available.
Flu Activity Not available.
METAR KJDN 180848Z AUTO 11003KT 14/10 A2975 RMK AO1 SLP059 T01390100 56014

More Conditions Fewer Conditions

Pressure 29.71 in
Visibility -9999.0 miles
Clouds
Dew Point 50 °F
Humidity 77%
Rainfall 0.00 in
Snow Depth Not available.
UV Not available.
Pollen 5.60 out of 12
Air Quality Not available.
Flu Activity Not available.
METAR KJDN 180848Z AUTO 11003KT 14/10 A2975 RMK AO1 SLP059 T01390100 56014

More Conditions Fewer Conditions

10-Day Weather Forecast

Almanac

Astronomy

Sep. 18, 2014 Rise Set
Actual Time 6:48 AM MDT 7:12 PM MDT
Civil Twilight 6:17 AM MDT 7:43 PM MDT
Nautical Twilight 5:41 AM MDT 8:20 PM MDT
Astronomical Twilight 5:03 AM MDT 8:57 PM MDT
Moon 1:26 AM MDT 4:20 PM MDT
Length of Visible Light 13h 25m
Length of Day
12h 24m
Tomorrow will be 3m 23s shorter.
Waning Crescent, 28% of the Moon is Illuminated
Today
Waning Crescent
Sep 24
New
Oct 1
First Quarter
Oct 8
Full
Oct 15
Last Quarter

Today's Extremes

State Highs State Lows

Community

WunderPhotos

Upload Photos

1,754,311 photos uploaded!

Nearby

Snow Depth

Station Depth Elevation
Brackett Creek 0 in 7320 ft
Copper Bottom 0 in 5200 ft
West Yellowstone 0 in 6700 ft
Peterson Meadows 0 in 7200 ft
Kraft Creek 0 in 4750 ft

Earthquake Activity

City Distance Mag. Time & Date
No recent earthquake activity has been reported nearby.
Minimum magnitude displayed is 2.5.

Coastal Water Temperatures

Place Temperature
No Stations Reporting

Nearby Weather Stations